x

9442396 - La Push, Wa (lapw1) Weather Station

10:36 - Sat 3rd Dec 2016 All times are PST. -8 hours from GMT.

  • Wind
    7mph, 8mph gusts
  • Sea Temp 45°f
  • Luft Temp 49°f
  • Sea Pressure 1025.5mb
  • 9442396 - La Push, Wa
  • 9442396 - La Push, Wa

More Historic Weather Station data

Upgrade to MSW Pro to gain access to the past 30 days of data for over 8000 Wavebouys and Weather Stations around the globe.

Join Pro

Comparision Forecast

View Surf forecast
   
Sa 12/03 10:36 7 8 mph 1025.5mb 45f 49f
10:30 6 9 mph 1025.4mb 45f 48f
10:24 8 17 mph 1025.7mb 45f 48f
10:18 17 22 mph 1025.9mb 46f 50f
10:12 13 17 mph 1025.8mb 45f 51f
10:06 10 15 mph 1025.5mb 44f 50f
10:00 9 16 mph 1025.6mb 44f 51f
9:36 6 11 mph 1025.3mb 45f 49f
9:30 7 9 mph 1025.2mb 45f 49f
9:24 7 9 mph 1025mb 45f 45f
9:18 3 9 mph 1025.1mb 45f 44f
9:12 5 6 mph 1025.4mb 45f 44f
9:06 6 7 mph 1025.1mb 45f 43f
9:00 3 6 mph 1025.1mb 45f 43f
8:36 5 7 mph 1025.5mb 45f 43f
8:30 6 7 mph 1025.5mb 45f 43f
8:24 5 7 mph 1025.3mb 45f 44f
8:18 6 7 mph 1025.1mb 45f 44f
8:12 7
mph
1024.8mb 45f 44f
8:06 5 6 mph 1025.2mb 45f 46f
8:00 2 6 mph 1025mb 45f 48f
7:36 13 21 mph 1025.5mb 45f 48f
7:30 15 18 mph 1025.5mb 45f 49f
7:24 13 17 mph 1025.4mb 45f 50f
7:18 11 14 mph 1025.6mb 45f 46f
7:12 2 7 mph 1025.3mb 45f 49f
7:06 7 8 mph 1025.4mb 45f 48f
7:00 8 10 mph 1025.5mb 45f 48f
6:36 11 16 mph 1025.4mb 45f 50f
6:30 11 14 mph 1025.3mb 45f 50f
6:24 10 17 mph 1025.3mb 45f 49f
6:18 13 16 mph 1025.4mb 45f 49f
6:12 8 9 mph 1025.3mb 45f 48f
6:06 7 9 mph 1025.4mb 45f 48f
6:00 6 7 mph 1025.1mb 45f 46f
5:36 20 24 mph 1025.6mb 46f 49f
5:30 7 10 mph 1024.9mb 45f 49f
5:24 8 11 mph 1025mb 45f 49f
5:18 10 14 mph 1025mb 45f 49f
5:12 13 15 mph 1025mb 46f 49f
5:06 8 11 mph 1024.8mb 45f 49f
5:00 6 9 mph 1024.7mb 45f 48f
4:36 16 20 mph 1025.1mb 45f 50f
4:30 13 16 mph 1024.9mb 45f 50f
4:24 15 17 mph 1024.9mb 45f 49f
4:18 14 15 mph 1025mb 45f 50f
4:12 14 16 mph 1024.9mb 45f 50f
4:06 11 14 mph 1024.8mb 45f 50f
4:00 10 14 mph 1024.8mb 45f 49f
3:36 11 16 mph 1024.9mb 46f 48f
3:30 15 21 mph 1024.9mb 46f 47f
3:24 16 25 mph 1024.9mb 46f 48f
3:18 22 28 mph 1025.1mb 47f 51f
3:12 11 16 mph 1024.5mb 45f 51f
3:06 14 17 mph 1024.6mb 45f 51f
3:00 14 18 mph 1024.6mb 45f 51f
2:36 15 18 mph 1024.4mb 45f 51f
2:30 14 17 mph 1024.3mb 45f 51f
2:24 14 20 mph 1024.3mb 45f 51f
2:18 15 21 mph 1024.5mb 45f 51f
2:12 15 20 mph 1024.6mb 45f 51f
2:06 16 20 mph 1024.4mb 46f 51f
2:00 16 21 mph 1024.3mb 45f 51f
1:36 16 18 mph 1024.2mb 45f 51f
1:30 14 16 mph 1024.1mb 45f 51f
1:24 13 18 mph 1024mb 45f 51f
1:18 15 18 mph 1024mb 45f 51f
1:12 11 16 mph 1023.9mb 45f 49f
1:06 8 10 mph 1023.9mb 45f 49f
1:00 8 13 mph 1024mb 45f 50f
12:36 8 11 mph 1023.9mb 45f 49f
12:30 9 13 mph 1023.9mb 45f 49f
12:24 10 15 mph 1024mb 45f 49f
12:18 11 17 mph 1024mb 45f 49f
12:12 16 18 mph 1024.1mb 46f 49f
12:06 14 22 mph 1024mb 45f 48f
12:00 16 24 mph 1024.1mb 46f 48f
Fr 12/02 11:36 17 24 mph 1023.8mb 46f 48f
11:30 20 30 mph 1023.8mb 46f 49f
11:24 22 29 mph 1024mb 45f 51f
11:18 14 21 mph 1023.5mb 45f 51f
11:12 13 20 mph 1023.3mb 45f 51f
11:06 14 20 mph 1023.2mb 45f 51f
11:00 16 20 mph 1023.1mb 45f 51f
10:36 13 16 mph 1022.4mb 45f 51f
10:30 11 16 mph 1022.4mb 45f 51f
10:24 13 17 mph 1022.4mb 45f 51f
10:18 14 18 mph 1022.5mb 45f 51f
10:12 14 17 mph 1022.4mb 45f 51f
10:06 13 16 mph 1022.3mb 45f 51f
10:00 11 16 mph 1022.3mb 45f 50f
9:36 17 21 mph 1022mb 45f 51f
9:30 15 21 mph 1022mb 45f 51f
9:24 15 20 mph 1021.9mb 45f 51f
9:18 14 18 mph 1021.8mb 45f 51f
9:12 15 18 mph 1021.7mb 45f 51f
9:06 14 17 mph 1021.7mb 45f 51f
9:00 14 17 mph 1021.7mb 45f 51f
8:36 10 11 mph 1021.8mb 46f 50f
8:30 9 13 mph 1021.6mb 46f 49f
8:24 9 14 mph 1021.5mb 46f 49f
8:18 10 17 mph 1021.5mb 46f 49f
8:12 15 20 mph 1021.6mb 46f 49f
8:06 16 22 mph 1021.5mb 47f 50f
8:00 17 23 mph 1021.5mb 45f 50f
7:36 15 20 mph 1021mb 45f 51f
7:30 15 21 mph 1020.9mb 45f 51f
7:24 15 21 mph 1020.7mb 46f 51f
7:18 14 18 mph 1020.8mb 46f 51f
7:12 14 20 mph 1020.8mb 46f 51f
7:06 14 21 mph 1020.7mb 46f 51f
7:00 15 20 mph 1020.8mb 46f 51f
6:36 15 22 mph 1020.7mb 46f 51f
6:30 16 22 mph 1020.8mb 46f 50f
6:24 18 22 mph 1020.7mb 47f 50f
6:18 16 24 mph 1020.6mb 46f 50f
6:12 22 25 mph 1020.9mb 46f 50f
6:06 21 26 mph 1020.7mb 46f 50f
6:00 23 29 mph 1020.9mb 46f 51f
5:36 16 22 mph 1020.3mb 45f 51f
5:30 17 22 mph 1020.1mb 45f 52f
5:24 17 23 mph 1020.2mb 45f 52f
5:18 18 22 mph 1020.3mb 45f 52f
5:12 16 20 mph 1020.1mb 45f 52f
5:06 17 21 mph 1020mb 45f 52f
5:00 14 21 mph 1020mb 45f 52f
4:36 18 22 mph 1019.9mb 45f 52f
4:30 17 21 mph 1020mb 45f 52f
4:24 16 21 mph 1020.1mb 45f 52f
4:18 15 21 mph 1019.9mb 45f 52f
4:12 17 22 mph 1019.8mb 45f 52f
4:06 16 22 mph 1019.8mb 45f 52f
4:00 18 23 mph 1019.8mb 45f 52f
3:30 15 21 mph 1019.7mb 45f 52f
3:24 17 24 mph 1019.6mb 45f 53f
3:18 18 21 mph 1019.7mb 45f 53f
3:12 14 17 mph 1019.3mb 45f 53f
3:06 14 18 mph 1019.4mb 45f 53f
3:00 15 21 mph 1019.1mb 45f 53f
12:36 24 32 mph 1019mb 50f 51f
12:30 22 32 mph 1019.2mb 51f 51f
12:24 22 29 mph 1019.3mb 50f 51f
12:18 22 28 mph 1019.4mb 50f 51f
12:12 21 28 mph 1019.3mb 49f 51f
12:06 21 28 mph 1019.3mb 49f 51f
12:00 21 32 mph 1019.5mb 49f 51f
11:36 23 30 mph 1019.9mb 47f 51f
11:30 24 30 mph 1019.9mb 46f 51f
11:24 21 31 mph 1019.9mb 46f 51f
11:18 23 32 mph 1020mb 46f 51f
11:12 24 36 mph 1019.9mb 46f 51f
11:06 22 32 mph 1020mb 45f 51f
11:00 24 37 mph 1020mb 45f 51f
10:54 23 33 mph 1020.1mb 45f 51f
10:48 26 34 mph 1020.1mb 45f 51f
10:36 24 32 mph 1020.3mb 45f 49f
10:30 17 28 mph 1020.5mb 45f 49f
10:24 14 23 mph 1020.6mb 45f 48f
10:18 14 23 mph 1020.7mb 45f 48f
10:12 15 30 mph 1020.7mb 45f 48f
10:06 18 26 mph 1020.7mb 45f 48f
10:00 15 28 mph 1020.7mb 45f 48f
9:54 14 25 mph 1020.7mb 45f 49f
9:48 17 30 mph 1020.8mb 45f 49f
9:36 11 28 mph - 45f 48f
9:30 16 26 mph - 45f 48f
9:24 17 29 mph - 45f 48f
9:18 16 26 mph - 45f 48f
9:12 14 23 mph - 45f 48f
9:06 16 24 mph - 45f 48f
9:00 14 21 mph - 45f 47f
8:54 15 23 mph - 45f 48f
8:48 16 25 mph - 45f 48f
8:36 15 23 mph 1021.8mb 45f 48f
8:30 15 21 mph 1021.7mb 45f 48f
8:24 15 26 mph 1021.7mb 45f 48f
8:18 18 28 mph 1021.5mb 45f 48f
8:12 18 25 mph 1021.5mb 45f 48f
8:06 13 24 mph 1021.6mb 45f 48f
8:00 11 21 mph 1022mb 45f 48f
7:54 14 23 mph 1021.9mb 45f 48f
7:48 17 24 mph 1021.8mb 45f 48f
7:36 10 23 mph 1022.1mb 45f 49f
7:30 14 24 mph 1022mb 45f 49f
7:24 20 29 mph 1021.8mb 45f 48f
7:18 14 24 mph 1021.8mb 45f 48f
7:12 16 23 mph 1022.1mb 45f 48f
7:06 11 21 mph 1022.2mb 45f 48f
7:00 16 22 mph 1022.3mb 45f 48f
6:54 14 21 mph 1022.4mb 45f 48f
6:48 14 24 mph 1022.5mb 45f 48f
6:36 10 20 mph 1022.6mb 45f 48f
6:30 14 24 mph 1022.7mb 45f 48f
6:24 10 23 mph 1022.7mb 45f 48f
6:18 10 22 mph 1022.4mb 45f 48f
6:12 10 23 mph 1022.5mb 44f 48f
6:06 14 25 mph 1022.4mb 44f 48f
6:00 16 23 mph 1022.7mb 45f 48f
5:54 11 22 mph 1022.7mb 45f 48f
5:48 11 21 mph 1022.6mb 45f 48f
5:36 10 23 mph 1022.5mb 44f 48f
5:30 13 22 mph 1022.5mb 44f 48f
5:24 13 28 mph 1022.6mb 45f 48f
5:18 16 26 mph 1022.8mb 45f 48f
5:12 16 29 mph 1022.7mb 45f 48f
5:06 14 22 mph 1022.8mb 45f 48f
5:00 14 21 mph 1022.5mb 45f 48f
4:54 14 21 mph 1022.6mb 45f 48f
4:48 10 21 mph 1022.7mb 45f 48f
4:36 13 22 mph 1022.8mb 45f 48f
4:30 10 24 mph 1022.8mb 45f 48f
4:24 14 23 mph 1023mb 45f 48f
4:18 13 21 mph 1023.1mb 45f 48f
4:12 10 23 mph 1023.3mb 45f 48f
4:06 11 22 mph 1023.4mb 45f 48f
4:00 11 20 mph 1023.4mb 45f 48f
3:54 11 21 mph 1023.4mb 45f 48f
3:48 13 25 mph 1023.5mb 45f 48f
3:36 13 18 mph 1023.9mb 45f 48f
3:30 11 16 mph 1024mb 46f 48f
3:24 10 20 mph 1024.2mb 46f 48f
3:18 11 20 mph 1024.2mb 46f 48f
3:12 11 20 mph 1024.3mb 46f 48f
3:06 10 18 mph 1024.4mb 46f 48f
3:00 11 22 mph 1024.5mb 47f 49f
2:54 15 21 mph 1024.6mb 47f 48f
2:48 11 16 mph 1024.7mb 48f 48f
2:36 11 22 mph 1024.7mb 49f 48f
2:30 11 21 mph 1024.8mb 50f 48f
2:24 13 18 mph 1024.8mb 50f 48f
2:18 11 18 mph 1024.8mb 50f 48f
2:12 11 16 mph 1024.8mb 51f 48f
2:06 9 16 mph 1024.7mb 51f 48f
2:00 8 17 mph 1024.7mb 51f 48f
1:54 10 16 mph 1024.7mb 51f 48f
1:48 13 17 mph 1024.8mb 50f 48f
1:36 9 14 mph 1025.1mb 50f 48f
1:30 10 15 mph 1025mb 49f 48f
1:24 10 16 mph 1025mb 49f 48f
1:18 9 14 mph 1024.9mb 48f 48f
1:12 8 15 mph 1024.9mb 47f 48f
1:06 8 17 mph 1024.9mb 46f 48f
1:00 7 13 mph 1024.9mb 45f 48f
12:54 7 18 mph 1025mb 45f 48f
12:48 9 16 mph 1025mb 45f 48f
12:36 9 14 mph 1025.1mb 45f 48f
12:30 8 14 mph 1025mb 44f 48f
12:24 10 17 mph 1025mb 45f 48f
12:18 9 17 mph 1025.1mb 45f 48f
12:12 8 16 mph 1025.1mb 45f 48f
12:06 9 17 mph 1025.1mb 45f 48f
12:00 7 14 mph 1025mb 45f 48f
Do 12/01 11:54 11 18 mph 1025.1mb 45f 48f
11:48 9 15 mph 1025.1mb 45f 48f
11:36 7 17 mph 1025.1mb 44f 48f
11:30 7 11 mph 1025.1mb 44f 47f
11:24 7 14 mph 1025.2mb 44f 47f
11:18 6 14 mph 1025.2mb 44f 47f
11:12 6 11 mph 1025.2mb 44f 47f
11:06 5 14 mph 1025.3mb 44f 47f
11:00 7 9 mph 1025.3mb 44f 47f
10:54 6 10 mph 1025.2mb 44f 47f
10:48 7 10 mph 1025.2mb 44f 46f
10:36 6 10 mph 1025.2mb 44f 46f
10:30 3 7 mph 1025.2mb 44f 46f
10:24 6 7 mph 1025.3mb 44f 46f
10:18 3 7 mph 1025.3mb 44f 46f
10:12 3 7 mph 1025.3mb 44f 46f
10:06 5 8 mph 1025.2mb 44f 46f
10:00 7 11 mph 1025.1mb 44f 46f
9:54 5 11 mph 1025.1mb 44f 46f
9:48 5 10 mph 1025mb 44f 46f
9:36 6 7 mph 1025mb 44f 46f
9:30 5 7 mph 1025.1mb 44f 46f
9:24 5 13 mph 1025mb 44f 46f
9:18 3 8 mph 1025.1mb 44f 46f
9:12 5 10 mph 1025.1mb 44f 46f
9:06 6 11 mph 1025.2mb 44f 46f
9:00 5 9 mph 1025.1mb 44f 46f
8:54 7 13 mph 1025mb 44f 46f
8:48 7 13 mph 1025mb 44f 46f
8:36 7 10 mph 1025mb 44f 46f
8:30 5 14 mph 1025mb 44f 46f
8:24 7 11 mph 1025.1mb 44f 46f
8:18 6 11 mph 1025.2mb 44f 46f
8:12 5 11 mph 1025.2mb 44f 46f
8:06 6 13 mph 1025.2mb 44f 46f
8:00 9 17 mph 1025.3mb 44f 46f
7:54 5 9 mph 1025.4mb 44f 46f
7:48 6 10 mph 1025.3mb 44f 46f
7:36 6 9 mph 1025.4mb 44f 46f
7:30 5 11 mph 1025.4mb 44f 46f
7:24 6 11 mph 1025.3mb 44f 46f
7:18 6 11 mph 1025.3mb 44f 46f
7:12 5 8 mph 1025.4mb 44f 46f
7:06 5 11 mph 1025.4mb 44f 46f
7:00 6 9 mph 1025.3mb 44f 46f
6:54 5 9 mph 1025.4mb 44f 45f
6:48 5 8 mph 1025.5mb 44f 45f
6:30 6 8 mph 1025.5mb 44f 45f
6:24 5 8 mph 1025.5mb 44f 45f
6:18 5 6 mph 1025.5mb 44f 45f
6:12 5 6 mph 1025.6mb 44f 45f
6:06 3 7 mph 1025.7mb 44f 45f
6:00 3 8 mph 1025.7mb 44f 46f
5:54 5 6 mph 1025.7mb 44f 45f
5:48 5 9 mph 1025.7mb 44f 45f
5:30 3 8 mph 1025.6mb 44f 45f
5:24 5 9 mph 1025.6mb 44f 45f
5:18 3 6 mph 1025.6mb 44f 45f
5:12 2 7 mph 1025.5mb 44f 45f
5:06 5 9 mph 1025.4mb 44f 45f
5:00 5 7 mph 1025.4mb 44f 45f
4:54 3 8 mph 1025.4mb 44f 45f
4:48 2 6 mph 1025.3mb 44f 45f
4:36 1 7 mph 1025.3mb 44f 45f
4:30 2 8 mph 1025.5mb 44f 45f
4:24 5 6 mph 1025.5mb 44f 45f
4:18 2 8 mph 1025.5mb 44f 45f
4:12 3 8 mph 1025.4mb 44f 45f
4:06 3 8 mph 1025.3mb 44f 46f
4:00 5 8 mph 1025.3mb 44f 46f
3:54 5 9 mph 1025.1mb 44f 46f
3:48 5 8 mph 1025.2mb 44f 46f
3:36 2 6 mph 1025.4mb 44f 46f
3:30 3 6 mph 1025.2mb 44f 46f
3:24 3 6 mph 1025mb 44f 46f
3:18 3 7 mph 1025.2mb 44f 46f
3:12 3 7 mph 1025.4mb 44f 45f
3:06 6 8 mph 1025.5mb 44f 46f
3:00 3 7 mph 1025.4mb 44f 46f
2:54 2 6 mph 1025.3mb 44f 46f
2:48 5 7 mph 1025.1mb 44f 46f
2:36 7 9 mph 1024.9mb 44f 46f
2:30 6 9 mph 1024.8mb 44f 46f
2:24 5 8 mph 1024.8mb 44f 46f
2:18 6 9 mph 1024.9mb 44f 46f
2:12 2 7 mph 1024.9mb 45f 46f
2:06 3 8 mph 1024.9mb 45f 46f
2:00 2 7 mph 1025mb 45f 45f
1:54 3 6 mph 1025mb 45f 45f
1:48 3 8 mph 1024.8mb 45f 45f
1:36 6 8 mph 1025mb 46f 45f
1:30 5 7 mph 1025mb 46f 45f
1:24 5 8 mph 1025.1mb 47f 45f
1:18 5 8 mph 1025.2mb 47f 45f
1:12 5 8 mph 1025.3mb 48f 45f
1:06 3 8 mph 1025.3mb 48f 45f
1:00 3 7 mph 1025.2mb 47f 45f
12:54 3 6 mph 1025.2mb 47f 45f
12:48 3 6 mph 1025.2mb 47f 45f
12:36 2 3 mph 1025mb 47f 45f
12:30 2 5 mph 1025mb 47f 45f
12:24 2 5 mph 1025mb 47f 44f
12:18 3 6 mph 1025.1mb 47f 44f
12:12 3 6 mph 1025mb 46f 44f
12:06 2 5 mph 1025mb 46f 44f
12:00 2 5 mph 1025mb 46f 44f
11:54 2 5 mph 1025.1mb 45f 44f
11:48 2 3 mph 1025.1mb 45f 44f
11:36 2 5 mph 1025.2mb 45f 44f
11:30 2 5 mph 1025.3mb 45f 44f
11:24 3 6 mph 1025.3mb 45f 44f
11:18 3 6 mph 1025.3mb 45f 44f
11:12 5 7 mph 1025.3mb 45f 43f
11:06 3 5 mph 1025.4mb 45f 43f
11:00 2 5 mph 1025.4mb 45f 43f
10:54 3 5 mph 1025.3mb 45f 43f
10:48 2 5 mph 1025.2mb 45f 42f
9:54 5 7 mph 1024.8mb 44f 41f
9:48 5 8 mph 1024.8mb 44f 41f
9:36 7 8 mph 1024.7mb 44f 41f
9:30 7 8 mph 1024.7mb 44f 41f
9:24 6 8 mph 1024.7mb 44f 41f
9:18 7 8 mph 1024.7mb 44f 41f
9:12 7 9 mph 1024.6mb 44f 41f
9:06 6 10 mph 1024.5mb 44f 41f
9:00 7 9 mph 1024.5mb 44f 41f
8:54 5 7 mph 1024.4mb 44f 41f
8:48 6 8 mph 1024.3mb 44f 41f
8:36 5 7 mph 1024.2mb 45f 41f
8:30 6 7 mph 1024.3mb 45f 41f
8:24 7 8 mph 1024.5mb 45f 41f
8:18 5 9 mph 1024.5mb 45f 41f
8:12 7 8 mph 1024.6mb 45f 41f
8:06 8 10 mph 1024.6mb 45f 41f
8:00 5 9 mph 1024.6mb 46f 40f
7:54 6 10 mph 1024.2mb 46f 41f
7:48 9 10 mph 1024.1mb 46f 41f
7:36 7 9 mph 1024.1mb 46f 40f
7:30 7 8 mph 1024.1mb 46f 40f
7:24 7 9 mph 1024.1mb 46f 40f
7:18 7 8 mph 1024mb 45f 40f
7:12 7 8 mph 1024mb 45f 40f
7:06 7 9 mph 1023.9mb 45f 40f
7:00 7 9 mph 1023.9mb 45f 40f
6:54 7 9 mph 1023.9mb 45f 40f
6:48 7 8 mph 1023.9mb 45f 40f
6:36 7 9 mph 1023.9mb 45f 41f
6:30 7 9 mph 1023.9mb 45f 41f
6:24 7 9 mph 1023.8mb 45f 41f
6:18 7 9 mph 1023.7mb 45f 41f
6:12 7 9 mph 1023.8mb 45f 41f
6:06 7 8 mph 1023.7mb 45f 41f
6:00 6 8 mph 1023.6mb 45f 41f
5:54 6 8 mph 1023.4mb 45f 41f
5:48 6 8 mph 1023.4mb 45f 41f
5:36 7 9 mph 1023.3mb 45f 41f
5:30 6 8 mph 1023.3mb 45f 42f
5:24 5 8 mph 1023.2mb 45f 42f
5:18 6 7 mph 1023.2mb 45f 43f
5:12 6 9 mph 1023.2mb 45f 45f
5:06 5 9 mph 1023.2mb 45f 46f
5:00 7 17 mph 1023.2mb 45f 47f
4:54 15 20 mph 1023.4mb 45f 49f
4:48 14 18 mph 1023.4mb 44f 48f
4:36 14 17 mph 1023.3mb 44f 49f
4:30 14 16 mph 1023.3mb 44f 49f
4:24 14 20 mph 1023.3mb 45f 48f
4:18 15 20 mph 1023.4mb 45f 48f
4:12 15 21 mph 1023.5mb 45f 45f
4:06 10 13 mph 1023.2mb 45f 48f
4:00 8 10 mph 1023.2mb 45f 49f
3:54 9 13 mph 1023.3mb 45f 49f
3:48 10 13 mph 1023.3mb 45f 49f
3:36 11 16 mph 1023.4mb 45f 49f
3:30 10 20 mph 1023.4mb 45f 49f
3:24 15 22 mph 1023.5mb 45f 48f
3:18 20 23 mph 1023.7mb 45f 48f
3:12 9 14 mph 1023.5mb 45f 47f
3:06 14 18 mph 1023.5mb 46f 47f
3:00 20 24 mph 1023.6mb 45f 47f
2:54 20 23 mph 1023.8mb 46f 48f
2:48 18 23 mph 1023.8mb 45f 45f
2:36 6 10 mph 1023.2mb 45f 45f
2:30 9 15 mph 1023.2mb 45f 49f
2:24 8 11 mph 1023.3mb 45f 48f
2:18 9 16 mph 1023.2mb 45f 47f
2:12 17 23 mph 1023.2mb 46f 50f
2:06 11 15 mph 1023mb 45f 49f
2:00 14 16 mph 1022.9mb 45f 49f
1:54 11 15 mph 1022.8mb 45f 49f
1:48 13 16 mph 1022.9mb 45f 49f
1:36 14 17 mph 1022.7mb 45f 49f
1:30 16 22 mph 1022.7mb 45f 49f
1:24 17 21 mph 1022.6mb 45f 49f
1:18 18 22 mph 1022.6mb 45f 49f
1:12 13 17 mph 1022.5mb 45f 49f
1:06 14 17 mph 1022.4mb 45f 49f
1:00 9 11 mph 1022.2mb 45f 48f
12:54 9 15 mph 1022.1mb 45f 48f
12:48 11 16 mph 1022.2mb 45f 48f
12:36 13 18 mph 1022.2mb 46f 47f
12:30 16 21 mph 1022.5mb 46f 48f
12:24 15 24 mph 1022.5mb 46f 49f
12:18 18 24 mph 1022.4mb 46f 49f
12:12 17 21 mph 1022.2mb 45f 48f
12:06 16 22 mph 1022.1mb 45f 49f
12:00 18 23 mph 1022.2mb 45f 49f
Mi 11/30 11:54 17 22 mph 1022.2mb 45f 49f
11:48 18 22 mph 1022.1mb 45f 49f
11:36 17 23 mph 1022.1mb 45f 49f
11:30 21 23 mph 1022mb 45f 50f
11:24 17 23 mph 1021.9mb 45f 50f
11:18 18 23 mph 1022mb 45f 49f
11:12 15 22 mph 1022mb 46f 49f
11:06 16 21 mph 1021.9mb 46f 49f
11:00 17 25 mph 1021.9mb 46f 48f
10:54 15 23 mph 1021.9mb 45f 50f
10:48 17 22 mph 1021.9mb 44f 50f
10:36 16 20 mph 1021.6mb 45f 50f
10:30 18 24 mph 1021.6mb 45f 50f
10:24 20 25 mph 1021.7mb 45f 50f
10:18 20 24 mph 1021.5mb 45f 50f
10:12 20 23 mph 1021.5mb 45f 50f
10:06 16 22 mph 1021.4mb 45f 50f
10:00 16 24 mph 1021.3mb 45f 50f
9:36 21 26 mph 1021.4mb 47f 48f
9:30 10 14 mph 1021mb 47f 48f
9:24 14 23 mph 1021mb 47f 49f
9:18 20 24 mph 1021.1mb 47f 49f
9:12 16 23 mph 1021mb 47f 48f
9:06 21 24 mph 1021mb 47f 50f
9:00 15 22 mph 1021mb 45f 50f
8:54 16 22 mph 1021.1mb 45f 50f
8:48 18 24 mph 1021.2mb 45f 50f
8:36 20 24 mph 1021.1mb 45f 50f
8:30 20 25 mph 1021.1mb 45f 49f
8:24 21 28 mph 1020.9mb 46f 50f
8:18 17 23 mph 1021mb 45f 50f
8:12 18 23 mph 1020.9mb 46f 50f
8:06 21 28 mph 1021mb 47f 50f
8:00 22 28 mph 1020.8mb 47f 49f
7:54 20 26 mph 1020.8mb 47f 50f
7:48 23 31 mph 1020.8mb 47f 50f
7:36 22 28 mph 1020.5mb 46f 50f
7:30 22 26 mph 1020.5mb 46f 50f
7:24 21 25 mph 1020.4mb 47f 50f
7:18 18 23 mph 1020.3mb 47f 50f
7:12 21 26 mph 1020.3mb 47f 50f
7:06 17 23 mph 1020.2mb 46f 50f
7:00 20 26 mph 1020.2mb 46f 50f
6:54 21 28 mph 1020.2mb 45f 50f
6:48 21 26 mph 1020.2mb 45f 50f
6:36 17 25 mph 1020.1mb 45f 51f
6:30 16 24 mph 1020.1mb 45f 50f
6:24 17 26 mph 1020.1mb 45f 50f
6:18 20 28 mph 1019.9mb 46f 50f
6:12 21 29 mph 1019.9mb 45f 51f
6:06 21 25 mph 1019.9mb 45f 51f
6:00 17 25 mph 1019.9mb 45f 51f
5:54 20 24 mph 1019.8mb 45f 51f
5:48 17 23 mph 1019.8mb 45f 51f
5:36 15 21 mph 1019.7mb 45f 51f
5:30 18 22 mph 1019.7mb 45f 51f
5:24 20 26 mph 1019.7mb 45f 51f
5:18 18 26 mph 1019.7mb 45f 51f
5:12 20 25 mph 1019.6mb 45f 51f
5:06 21 26 mph 1019.5mb 45f 51f
5:00 20 26 mph 1019.4mb 45f 51f
4:54 20 25 mph 1019.2mb 45f 51f
4:48 17 24 mph 1019.3mb 45f 51f
4:36 22 25 mph 1019.2mb 45f 51f
4:30 20 23 mph 1019.1mb 45f 51f
4:24 17 25 mph 1019.1mb 45f 51f
4:18 18 25 mph 1019.1mb 45f 51f
4:12 22 25 mph 1019.2mb 45f 51f
4:06 23 26 mph 1019.1mb 45f 51f
4:00 23 26 mph 1019mb 44f 51f
3:54 21 26 mph 1018.9mb 45f 51f
3:48 20 26 mph 1018.8mb 45f 51f
3:36 23 29 mph 1018.7mb 44f 51f
2:36 24 30 mph 1017.8mb 46f 50f
2:30 23 30 mph 1017.7mb 47f 51f
2:24 24 29 mph 1017.9mb 46f 51f
2:18 24 31 mph 1018mb 47f 51f
2:12 23 26 mph 1018mb 47f 50f
2:06 25 31 mph 1018mb 48f 51f
2:00 29 34 mph 1018.1mb 46f 51f
1:54 25 33 mph 1018mb 45f 51f
1:48 26 33 mph 1018mb 45f 51f
1:36 23 29 mph 1017.5mb 45f 51f
1:30 22 29 mph 1017.6mb 45f 51f
1:24 25 34 mph 1017.7mb 45f 51f
1:18 26 33 mph 1017.7mb 45f 51f
1:12 22 30 mph 1017.7mb 46f 51f
1:06 26 32 mph 1017.6mb 48f 52f
1:00 26 33 mph 1017.5mb 46f 52f
12:54 26 32 mph 1017.6mb 47f 52f
12:48 28 33 mph 1017.7mb 47f 51f
12:36 25 34 mph 1017.4mb 46f 51f
12:30 25 36 mph 1017.4mb 46f 52f
12:24 26 32 mph 1017.5mb 46f 52f
12:18 25 32 mph 1017.4mb 46f 52f
12:12 24 36 mph 1017.3mb 47f 51f
12:06 26 33 mph 1017.2mb 46f 52f
12:00 23 32 mph 1017.2mb 46f 51f
11:54 28 34 mph 1017.2mb 46f 52f
11:48 25 33 mph 1017.2mb 46f 51f
11:36 23 31 mph 1016.9mb 47f 51f
11:30 23 34 mph 1016.7mb 46f 51f
11:24 25 33 mph 1016.5mb 47f 51f
11:18 28 34 mph 1016.9mb 47f 51f
11:12 29 34 mph 1016.8mb 47f 52f
11:06 26 33 mph 1016.6mb 46f 52f
11:00 29 36 mph 1016.7mb 46f 52f
10:54 28 38 mph 1016.6mb 46f 52f
10:48 28 36 mph 1016.7mb 46f 52f
10:36 28 37 mph 1016.4mb 46f 51f
10:30 28 36 mph 1016mb 46f 51f
10:24 25 31 mph 1015.9mb 47f 51f
10:18 24 32 mph 1015.7mb 46f 51f
10:12 25 31 mph 1015.7mb 46f 51f
10:06 28 36 mph 1015.7mb 46f 51f
10:00 28 34 mph 1015.5mb 46f 51f
9:54 29 37 mph 1015.6mb 45f 51f
9:48 29 38 mph 1015.5mb 45f 51f
9:36 30 38 mph 1015.2mb 45f 51f
9:30 28 37 mph 1014.9mb 45f 51f
9:24 28 36 mph 1015mb 45f 51f
9:18 28 37 mph 1014.9mb 45f 51f
9:12 31 38 mph 1014.6mb 45f 51f
9:06 31 39 mph 1014.6mb 45f 52f
9:00 24 34 mph 1014.1mb 46f 51f
8:54 30 39 mph 1014.4mb 46f 51f
8:48 30 40 mph 1014.1mb 46f 51f
8:36 32 41 mph 1013.9mb 46f 51f
8:30 25 38 mph 1013.6mb 46f 51f
8:24 33 41 mph 1013.5mb 46f 51f
8:18 28 36 mph 1013.3mb 46f 51f
8:12 26 38 mph 1012.9mb 46f 51f
8:06 31 43 mph 1013.2mb 46f 51f
8:00 29 43 mph 1012.7mb 46f 51f
7:54 29 36 mph 1013mb 46f 51f
7:48 28 38 mph 1012.4mb 47f 51f
7:36 31 40 mph 1012.4mb 45f 51f
7:30 29 40 mph 1012.1mb 45f 49f
7:24 28 38 mph 1012mb 47f 51f
7:18 29 39 mph 1011.7mb 47f 51f
7:12 31 37 mph 1011.8mb 46f 51f
7:06 24 33 mph 1011.5mb 46f 51f
7:00 25 36 mph 1011.4mb 46f 50f
6:54 25 33 mph 1011.4mb 46f 49f
6:48 23 31 mph 1011.2mb 46f 48f
6:36 29 38 mph 1011.2mb 46f 49f
6:30 29 36 mph 1011mb 46f 48f
6:24 21 30 mph 1010.6mb 46f 47f
6:18 22 31 mph 1010.7mb 46f 46f
6:12 26 34 mph 1010.5mb 46f 47f
6:06 28 40 mph 1010.7mb 46f 51f
6:00 25 36 mph 1010.5mb 46f 49f
5:54 28 34 mph 1010.3mb 46f 49f
5:48 24 31 mph 1010.4mb 46f 50f
5:36 23 34 mph 1010.1mb 46f 48f
5:30 30 38 mph 1010.4mb 46f 50f
5:24 26 32 mph 1009.9mb 46f 50f
5:18 24 32 mph 1009.9mb 46f 50f
5:12 24 34 mph 1009.8mb 46f 51f
5:06 24 31 mph 1009.8mb 45f 50f
5:00 25 32 mph 1009.7mb 45f 50f
4:54 26 34 mph 1009.7mb 46f 50f
4:48 28 33 mph 1009.5mb 46f 50f
4:36 22 38 mph 1009.4mb 46f 49f
4:30 26 36 mph 1009.4mb 46f 49f
4:24 28 37 mph 1009.2mb 46f 49f
4:18 25 33 mph 1009.1mb 46f 49f
4:12 26 36 mph 1009.1mb 46f 49f
4:06 28 36 mph 1009mb 46f 50f
4:00 25 34 mph 1008.9mb 45f 49f
3:54 28 37 mph 1008.9mb 45f 50f
3:48 25 38 mph 1008.8mb 46f 50f
3:36 26 40 mph 1008.5mb 46f 49f
3:30 24 34 mph 1008.5mb 46f 49f
3:24 28 38 mph 1008.5mb 46f 49f
3:18 31 38 mph 1008.5mb 46f 49f
3:12 29 38 mph 1008.5mb 46f 48f
3:06 24 30 mph 1007.9mb 46f 47f
3:00 24 32 mph 1008mb 46f 48f
2:54 20 29 mph 1008mb 46f 48f
2:48 24 33 mph 1007.8mb 47f 48f
2:36 28 37 mph 1007.8mb 48f 47f
2:30 23 33 mph 1007.5mb 48f 47f
2:24 26 33 mph 1007.6mb 49f 48f
2:18 22 31 mph 1007.5mb 51f 48f
2:12 26 33 mph 1007.5mb 51f 49f
2:06 23 32 mph 1007.4mb 51f 49f
2:00 25 32 mph 1007.3mb 51f 49f
1:54 26 31 mph 1007.4mb 51f 49f
1:48 23 29 mph 1007.4mb 51f 49f
1:36 21 37 mph 1007.3mb 52f 50f
1:30 21 33 mph 1007mb 51f 50f
1:24 20 29 mph 1006.9mb 51f 50f
1:18 18 24 mph 1007mb 52f 50f
1:12 18 29 mph 1007mb 52f 50f
1:06 21 29 mph 1006.9mb 52f 49f
1:00 15 26 mph 1007mb 52f 49f
12:54 14 24 mph 1007mb 52f 49f
12:48 23 32 mph 1007.4mb 52f 50f
12:36 17 32 mph 1007.1mb 52f 50f
12:30 20 32 mph 1006.9mb 52f 49f
12:24 21 29 mph 1006.9mb 52f 51f
12:18 21 24 mph 1006.8mb 52f 49f
12:12 16 28 mph 1006.9mb 52f 49f
12:06 18 26 mph 1007.1mb 51f 48f
12:00 15 24 mph 1007.1mb 51f 47f
Di 11/29 11:54 17 29 mph 1007mb 51f 47f
11:48 17 31 mph 1007.1mb 51f 47f
11:36 15 25 mph 1007mb 50f 47f
11:30 16 24 mph 1007mb 50f 47f
11:24 15 23 mph 1006.8mb 49f 47f
11:18 9 16 mph 1006.8mb 48f 47f
11:12 13 26 mph 1006.7mb 47f 47f
11:06 14 24 mph 1006.6mb 47f 47f
11:00 13 22 mph 1006.6mb 46f 47f
10:54 13 25 mph 1006.6mb 46f 47f
10:48 11 20 mph 1006.5mb 45f 47f
10:36 13 21 mph 1006.7mb 45f 46f
10:30 8 16 mph 1006.6mb 45f 46f
10:24 9 17 mph 1006.7mb 45f 46f
10:18 8 18 mph 1007mb 45f 46f
10:12 9 16 mph 1007.2mb 45f 46f
10:06 10 16 mph 1007.4mb 45f 46f
10:00 7 18 mph 1007.6mb 45f 46f
9:54 10 16 mph 1007.6mb 45f 46f
9:48 11 21 mph 1007.7mb 46f 46f
9:36 13 21 mph 1007.9mb 45f 46f
9:30 11 22 mph 1007.9mb 45f 46f
9:24 11 20 mph 1007.8mb 45f 47f
9:18 13 22 mph 1007.9mb 45f 47f
9:12 10 21 mph 1007.9mb 45f 47f
9:06 9 20 mph 1008.1mb 45f 47f
9:00 11 22 mph 1008.2mb 45f 47f
8:36 13 25 mph 1008.7mb 45f 47f
8:30 11 23 mph 1008.9mb 46f 47f
8:24 10 18 mph 1008.9mb 46f 47f
8:18 11 20 mph 1009mb 46f 47f
8:12 14 20 mph 1009.2mb 46f 47f
8:06 11 18 mph 1009.3mb 46f 47f
8:00 8 16 mph 1009.6mb 46f 48f
7:54 9 16 mph 1009.8mb 46f 49f
7:48 7 22 mph 1010mb 46f 49f